Fortuna, Spain
Current Conditions -  °F | °C
As of 9:30 PM on Tuesday 25 Nov 2014 (Local Time) from LEAL Reporting Station
Scattered Clouds Scattered Clouds  
Wind Chill: 63°   Ceiling: Unl
Heat Index: 63°   Visibility: 6mi
Dew Point: 61°   Wind: 0mph
Humidity: 94%   Direction: NA
Pressure: 30"   Gusts: NA
Location:  38.18°N, 1.13°W
Report Text: LEAL 252030Z 00000KT 9999 FEW015 SCT040 17/16 Q1016 NOSIG
Loading
Personal Weather Stations






























Interactive Weather Map New forecast layout! Learn more

10-Day Weather Forecast

Advertisements
Track Severe Weather on mobile